Date,TemperatureHighF,TemperatureAvgF,TemperatureLowF,DewpointHighF,DewpointAvgF,DewpointLowF,HumidityHigh,HumidityAvg,HumidityLow,PressureMaxIn,PressureMinIn,WindSpeedMaxMPH,WindSpeedAvgMPH,GustSpeedMaxMPH,PrecipitationSumIn
2013-2-1,32.5,26.4,19.7,21.0,14.1,9.0,76,61,44,30.57,30.33,3,0,0,0.00
2013-2-2,48.0,35.9,24.7,36.0,27.8,17.0,88,73,59,30.32,30.16,3,0,0,0.00
2013-2-3,52.4,41.8,31.7,34.0,30.8,27.0,92,67,41,30.20,30.11,12,1,0,0.00
2013-2-4,55.4,43.3,32.5,44.0,34.7,29.0,91,73,46,30.12,29.91,4,0,0,0.03
2013-2-5,60.6,45.9,34.4,51.0,41.2,32.0,95,84,60,30.07,29.94,4,0,0,0.00
2013-2-6,59.0,46.5,34.7,44.0,39.3,33.0,95,78,55,30.23,30.06,1,0,0,0.00
2013-2-7,66.2,55.1,43.4,54.0,47.5,36.0,93,76,63,30.06,29.88,3,0,0,0.35
2013-2-8,56.0,42.6,31.2,54.0,38.0,28.0,94,84,74,30.33,29.91,5,1,0,0.14
2013-2-9,48.2,39.0,28.8,39.0,33.4,27.0,93,81,65,30.35,30.05,1,0,0,0.00
2013-2-10,59.4,54.3,47.5,57.0,48.6,38.0,94,82,61,30.05,29.75,4,1,0,0.70
2013-2-11,55.7,48.1,42.2,53.0,35.9,30.0,89,64,42,30.21,29.95,4,0,0,0.00
2013-2-12,50.3,44.3,33.6,42.0,37.9,31.0,94,79,60,30.17,29.81,2,0,0,0.01
2013-2-13,44.0,39.7,35.8,41.0,37.0,33.0,93,90,82,30.03,29.80,5,0,0,0.03
2013-2-14,59.6,45.2,32.7,42.0,36.6,31.0,95,75,45,30.07,30.00,6,1,0,0.00
2013-2-15,53.2,43.8,36.2,39.0,32.8,25.0,89,67,43,30.22,30.07,5,1,0,0.00
2013-2-16,37.5,32.4,26.2,25.0,21.2,17.0,81,64,46,30.30,30.22,6,1,0,0.00
2013-2-17,53.4,41.4,27.8,32.0,26.8,21.0,79,58,40,30.28,30.08,3,0,0,0.00
2013-2-18,58.5,50.0,43.7,51.0,42.9,32.0,94,77,58,30.09,29.75,12,2,0,0.88
2013-2-19,46.9,39.6,29.9,41.0,29.0,23.0,84,67,44,30.30,29.97,10,2,0,0.00
2013-2-20,34.6,31.0,28.0,26.0,21.4,17.0,81,68,55,30.39,30.22,1,0,0,0.00
2013-2-21,40.9,35.4,30.8,40.0,31.6,25.0,95,86,71,30.22,29.78,3,0,0,1.18
2013-2-22,47.1,39.9,35.5,40.0,36.5,31.0,95,88,72,30.10,29.89,3,1,0,0.00
2013-2-23,46.8,35.9,28.0,33.0,29.0,26.0,92,77,54,30.09,29.99,4,0,0,0.00
2013-2-24,55.1,39.4,25.8,38.0,30.7,23.0,94,73,47,30.14,29.94,1,0,0,0.00
2013-2-25,61.3,49.7,37.4,52.0,39.4,29.0,94,69,42,29.94,29.32,2,0,0,0.69
2013-2-26,53.3,44.1,39.8,52.0,39.4,33.0,94,83,75,29.82,29.33,10,3,0,0.01
2013-2-27,43.0,40.1,37.5,38.0,33.4,29.0,86,77,69,29.99,29.83,5,2,0,0.00
2013-2-28,41.2,38.0,33.6,31.0,29.5,28.0,82,72,63,30.12,29.99,6,1,0,0.00